sensor_id;sensor_type;location;lat;lon;timestamp;temperature;humidity
15922;DHT22;8060;50.948;3.146;2023-12-20T00:01:24;7.70;99.90
15922;DHT22;8060;50.948;3.146;2023-12-20T00:03:52;7.70;99.90
15922;DHT22;8060;50.948;3.146;2023-12-20T00:06:20;7.70;99.90
15922;DHT22;8060;50.948;3.146;2023-12-20T00:08:48;7.70;99.90
15922;DHT22;8060;50.948;3.146;2023-12-20T00:11:16;7.70;99.90
15922;DHT22;8060;50.948;3.146;2023-12-20T00:13:45;7.70;99.90
15922;DHT22;8060;50.948;3.146;2023-12-20T00:16:17;7.70;99.90
15922;DHT22;8060;50.948;3.146;2023-12-20T00:18:47;7.70;99.90
15922;DHT22;8060;50.948;3.146;2023-12-20T00:21:15;7.70;99.90
15922;DHT22;8060;50.948;3.146;2023-12-20T00:23:43;7.70;99.90
15922;DHT22;8060;50.948;3.146;2023-12-20T00:26:11;7.70;99.90
15922;DHT22;8060;50.948;3.146;2023-12-20T00:28:39;7.70;99.90
15922;DHT22;8060;50.948;3.146;2023-12-20T00:31:07;7.60;99.90
15922;DHT22;8060;50.948;3.146;2023-12-20T00:33:36;7.60;99.90
15922;DHT22;8060;50.948;3.146;2023-12-20T00:36:06;7.60;99.90
15922;DHT22;8060;50.948;3.146;2023-12-20T00:38:34;7.60;99.90
15922;DHT22;8060;50.948;3.146;2023-12-20T00:41:02;7.60;99.90
15922;DHT22;8060;50.948;3.146;2023-12-20T00:43:30;7.60;99.90
15922;DHT22;8060;50.948;3.146;2023-12-20T00:45:58;7.60;99.90
15922;DHT22;8060;50.948;3.146;2023-12-20T00:48:27;7.60;99.90
15922;DHT22;8060;50.948;3.146;2023-12-20T00:50:57;7.60;99.90
15922;DHT22;8060;50.948;3.146;2023-12-20T00:53:26;7.60;99.90
15922;DHT22;8060;50.948;3.146;2023-12-20T00:55:55;7.60;99.90
15922;DHT22;8060;50.948;3.146;2023-12-20T00:58:25;7.60;99.90
15922;DHT22;8060;50.948;3.146;2023-12-20T01:00:55;7.60;99.90
15922;DHT22;8060;50.948;3.146;2023-12-20T01:03:23;7.60;99.90
15922;DHT22;8060;50.948;3.146;2023-12-20T01:05:51;7.70;99.90
15922;DHT22;8060;50.948;3.146;2023-12-20T01:08:19;7.70;99.90
15922;DHT22;8060;50.948;3.146;2023-12-20T01:10:49;7.70;99.90
15922;DHT22;8060;50.948;3.146;2023-12-20T01:13:17;7.60;99.90
15922;DHT22;8060;50.948;3.146;2023-12-20T01:15:45;7.60;99.90
15922;DHT22;8060;50.948;3.146;2023-12-20T01:18:14;7.60;99.90
15922;DHT22;8060;50.948;3.146;2023-12-20T01:20:42;7.60;99.90
15922;DHT22;8060;50.948;3.146;2023-12-20T01:23:10;7.60;99.90
15922;DHT22;8060;50.948;3.146;2023-12-20T01:25:39;7.50;99.90
15922;DHT22;8060;50.948;3.146;2023-12-20T01:28:08;7.50;99.90
15922;DHT22;8060;50.948;3.146;2023-12-20T01:30:37;7.50;99.90
15922;DHT22;8060;50.948;3.146;2023-12-20T01:33:05;7.40;99.90
15922;DHT22;8060;50.948;3.146;2023-12-20T01:35:33;7.40;99.90
15922;DHT22;8060;50.948;3.146;2023-12-20T01:38:01;7.30;99.90
15922;DHT22;8060;50.948;3.146;2023-12-20T01:40:29;7.30;99.90
15922;DHT22;8060;50.948;3.146;2023-12-20T01:42:58;7.30;99.90
15922;DHT22;8060;50.948;3.146;2023-12-20T01:45:28;7.20;99.90
15922;DHT22;8060;50.948;3.146;2023-12-20T01:47:57;7.20;99.90
15922;DHT22;8060;50.948;3.146;2023-12-20T01:50:27;7.10;99.90
15922;DHT22;8060;50.948;3.146;2023-12-20T01:52:56;7.10;99.90
15922;DHT22;8060;50.948;3.146;2023-12-20T01:55:26;7.10;99.90
15922;DHT22;8060;50.948;3.146;2023-12-20T01:57:56;7.00;99.90
15922;DHT22;8060;50.948;3.146;2023-12-20T02:00:25;6.90;99.90
15922;DHT22;8060;50.948;3.146;2023-12-20T02:02:55;6.90;99.90
15922;DHT22;8060;50.948;3.146;2023-12-20T02:05:25;6.90;99.90
15922;DHT22;8060;50.948;3.146;2023-12-20T02:07:54;6.90;99.90
15922;DHT22;8060;50.948;3.146;2023-12-20T02:10:23;6.80;99.90
15922;DHT22;8060;50.948;3.146;2023-12-20T02:12:51;6.80;99.90
15922;DHT22;8060;50.948;3.146;2023-12-20T02:15:20;6.80;99.90
15922;DHT22;8060;50.948;3.146;2023-12-20T02:17:49;6.90;99.90
15922;DHT22;8060;50.948;3.146;2023-12-20T02:20:18;6.80;99.90
15922;DHT22;8060;50.948;3.146;2023-12-20T02:22:48;6.80;99.90
15922;DHT22;8060;50.948;3.146;2023-12-20T02:25:16;6.80;99.90
15922;DHT22;8060;50.948;3.146;2023-12-20T02:27:44;6.70;99.90
15922;DHT22;8060;50.948;3.146;2023-12-20T02:30:14;6.80;99.90
15922;DHT22;8060;50.948;3.146;2023-12-20T02:32:42;6.70;99.90
15922;DHT22;8060;50.948;3.146;2023-12-20T02:35:10;6.70;99.90
15922;DHT22;8060;50.948;3.146;2023-12-20T02:37:39;6.70;99.90
15922;DHT22;8060;50.948;3.146;2023-12-20T02:40:09;6.60;99.90
15922;DHT22;8060;50.948;3.146;2023-12-20T02:42:37;6.60;99.90
15922;DHT22;8060;50.948;3.146;2023-12-20T02:45:06;6.60;99.90
15922;DHT22;8060;50.948;3.146;2023-12-20T02:47:34;6.60;99.90
15922;DHT22;8060;50.948;3.146;2023-12-20T02:50:02;6.60;99.90
15922;DHT22;8060;50.948;3.146;2023-12-20T02:52:30;6.50;99.90
15922;DHT22;8060;50.948;3.146;2023-12-20T02:54:58;6.50;99.90
15922;DHT22;8060;50.948;3.146;2023-12-20T02:57:28;6.50;99.90
15922;DHT22;8060;50.948;3.146;2023-12-20T02:59:56;6.50;99.90
15922;DHT22;8060;50.948;3.146;2023-12-20T03:02:24;6.40;99.90
15922;DHT22;8060;50.948;3.146;2023-12-20T03:04:52;6.40;99.90
15922;DHT22;8060;50.948;3.146;2023-12-20T03:07:21;6.40;99.90
15922;DHT22;8060;50.948;3.146;2023-12-20T03:09:49;6.40;99.90
15922;DHT22;8060;50.948;3.146;2023-12-20T03:12:38;6.30;99.90
15922;DHT22;8060;50.948;3.146;2023-12-20T03:15:08;6.30;99.90
15922;DHT22;8060;50.948;3.146;2023-12-20T03:17:36;6.30;99.90
15922;DHT22;8060;50.948;3.146;2023-12-20T03:20:06;6.30;99.90
15922;DHT22;8060;50.948;3.146;2023-12-20T03:22:34;6.20;99.90
15922;DHT22;8060;50.948;3.146;2023-12-20T03:25:02;6.20;99.90
15922;DHT22;8060;50.948;3.146;2023-12-20T03:27:31;6.20;99.90
15922;DHT22;8060;50.948;3.146;2023-12-20T03:30:00;6.20;99.90
15922;DHT22;8060;50.948;3.146;2023-12-20T03:32:28;6.20;99.90
15922;DHT22;8060;50.948;3.146;2023-12-20T03:34:56;6.20;99.90
15922;DHT22;8060;50.948;3.146;2023-12-20T03:37:25;6.20;99.90
15922;DHT22;8060;50.948;3.146;2023-12-20T03:39:53;6.20;99.90
15922;DHT22;8060;50.948;3.146;2023-12-20T03:42:21;6.20;99.90
15922;DHT22;8060;50.948;3.146;2023-12-20T03:44:49;6.20;99.90
15922;DHT22;8060;50.948;3.146;2023-12-20T03:47:19;6.30;99.90
15922;DHT22;8060;50.948;3.146;2023-12-20T03:49:47;6.30;99.90
15922;DHT22;8060;50.948;3.146;2023-12-20T03:52:15;6.30;99.90
15922;DHT22;8060;50.948;3.146;2023-12-20T03:54:44;6.40;99.90
15922;DHT22;8060;50.948;3.146;2023-12-20T03:57:12;6.40;99.90
15922;DHT22;8060;50.948;3.146;2023-12-20T03:59:40;6.40;99.90
15922;DHT22;8060;50.948;3.146;2023-12-20T04:02:08;6.40;99.90
15922;DHT22;8060;50.948;3.146;2023-12-20T04:04:38;6.50;99.90
15922;DHT22;8060;50.948;3.146;2023-12-20T04:07:06;6.40;99.90
15922;DHT22;8060;50.948;3.146;2023-12-20T04:09:34;6.40;99.90
15922;DHT22;8060;50.948;3.146;2023-12-20T04:12:02;6.40;99.90
15922;DHT22;8060;50.948;3.146;2023-12-20T04:14:32;6.40;99.90
15922;DHT22;8060;50.948;3.146;2023-12-20T04:17:00;6.40;99.90
15922;DHT22;8060;50.948;3.146;2023-12-20T04:19:28;6.50;99.90
15922;DHT22;8060;50.948;3.146;2023-12-20T04:21:58;6.50;99.90
15922;DHT22;8060;50.948;3.146;2023-12-20T04:24:26;6.50;99.90
15922;DHT22;8060;50.948;3.146;2023-12-20T04:26:54;6.50;99.90
15922;DHT22;8060;50.948;3.146;2023-12-20T04:29:22;6.50;99.90
15922;DHT22;8060;50.948;3.146;2023-12-20T04:31:50;6.50;99.90
15922;DHT22;8060;50.948;3.146;2023-12-20T04:34:19;6.40;99.90
15922;DHT22;8060;50.948;3.146;2023-12-20T04:36:47;6.40;99.90
15922;DHT22;8060;50.948;3.146;2023-12-20T04:39:17;6.40;99.90
15922;DHT22;8060;50.948;3.146;2023-12-20T04:41:45;6.40;99.90
15922;DHT22;8060;50.948;3.146;2023-12-20T04:44:14;6.40;99.90
15922;DHT22;8060;50.948;3.146;2023-12-20T04:46:42;6.40;99.90
15922;DHT22;8060;50.948;3.146;2023-12-20T04:49:11;6.30;99.90
15922;DHT22;8060;50.948;3.146;2023-12-20T04:51:39;6.30;99.90
15922;DHT22;8060;50.948;3.146;2023-12-20T04:54:07;6.30;99.90
15922;DHT22;8060;50.948;3.146;2023-12-20T04:56:38;6.20;99.90
15922;DHT22;8060;50.948;3.146;2023-12-20T04:59:06;6.30;99.90
15922;DHT22;8060;50.948;3.146;2023-12-20T05:01:34;6.30;99.90
15922;DHT22;8060;50.948;3.146;2023-12-20T05:04:02;6.20;99.90
15922;DHT22;8060;50.948;3.146;2023-12-20T05:06:30;6.20;99.90
15922;DHT22;8060;50.948;3.146;2023-12-20T05:08:58;6.20;99.90
15922;DHT22;8060;50.948;3.146;2023-12-20T05:11:26;6.30;99.90
15922;DHT22;8060;50.948;3.146;2023-12-20T05:13:56;6.20;99.90
15922;DHT22;8060;50.948;3.146;2023-12-20T05:16:24;6.20;99.90
15922;DHT22;8060;50.948;3.146;2023-12-20T05:18:52;6.20;99.90
15922;DHT22;8060;50.948;3.146;2023-12-20T05:21:20;6.20;99.90
15922;DHT22;8060;50.948;3.146;2023-12-20T05:23:48;6.20;99.90
15922;DHT22;8060;50.948;3.146;2023-12-20T05:26:16;6.20;99.90
15922;DHT22;8060;50.948;3.146;2023-12-20T05:28:44;6.20;99.90
15922;DHT22;8060;50.948;3.146;2023-12-20T05:31:14;6.20;99.90
15922;DHT22;8060;50.948;3.146;2023-12-20T05:33:42;6.20;99.90
15922;DHT22;8060;50.948;3.146;2023-12-20T05:36:10;6.20;99.90
15922;DHT22;8060;50.948;3.146;2023-12-20T05:38:40;6.30;99.90
15922;DHT22;8060;50.948;3.146;2023-12-20T05:41:08;6.30;99.90
15922;DHT22;8060;50.948;3.146;2023-12-20T05:43:36;6.30;99.90
15922;DHT22;8060;50.948;3.146;2023-12-20T05:46:05;6.30;99.90
15922;DHT22;8060;50.948;3.146;2023-12-20T05:48:34;6.30;99.90
15922;DHT22;8060;50.948;3.146;2023-12-20T05:51:03;6.30;99.90
15922;DHT22;8060;50.948;3.146;2023-12-20T05:53:31;6.30;99.90
15922;DHT22;8060;50.948;3.146;2023-12-20T05:55:59;6.30;99.90
15922;DHT22;8060;50.948;3.146;2023-12-20T05:58:27;6.30;99.90
15922;DHT22;8060;50.948;3.146;2023-12-20T06:00:56;6.20;99.90
15922;DHT22;8060;50.948;3.146;2023-12-20T06:03:24;6.20;99.90
15922;DHT22;8060;50.948;3.146;2023-12-20T06:05:53;6.20;99.90
15922;DHT22;8060;50.948;3.146;2023-12-20T06:08:39;6.20;99.90
15922;DHT22;8060;50.948;3.146;2023-12-20T06:11:07;6.20;99.90
15922;DHT22;8060;50.948;3.146;2023-12-20T06:13:35;6.20;99.90
15922;DHT22;8060;50.948;3.146;2023-12-20T06:16:05;6.20;99.90
15922;DHT22;8060;50.948;3.146;2023-12-20T06:18:34;6.30;99.90
15922;DHT22;8060;50.948;3.146;2023-12-20T06:21:05;6.20;99.90
15922;DHT22;8060;50.948;3.146;2023-12-20T06:23:34;6.20;99.90
15922;DHT22;8060;50.948;3.146;2023-12-20T06:26:03;6.20;99.90
15922;DHT22;8060;50.948;3.146;2023-12-20T06:28:31;6.20;99.90
15922;DHT22;8060;50.948;3.146;2023-12-20T06:30:59;6.20;99.90
15922;DHT22;8060;50.948;3.146;2023-12-20T06:33:27;6.20;99.90
15922;DHT22;8060;50.948;3.146;2023-12-20T06:35:56;6.20;99.90
15922;DHT22;8060;50.948;3.146;2023-12-20T06:38:25;6.20;99.90
15922;DHT22;8060;50.948;3.146;2023-12-20T06:40:54;6.20;99.90
15922;DHT22;8060;50.948;3.146;2023-12-20T06:43:24;6.20;99.90
15922;DHT22;8060;50.948;3.146;2023-12-20T06:46:12;6.20;99.90
15922;DHT22;8060;50.948;3.146;2023-12-20T06:48:41;6.20;99.90
15922;DHT22;8060;50.948;3.146;2023-12-20T06:51:12;6.20;99.90
15922;DHT22;8060;50.948;3.146;2023-12-20T06:53:41;6.20;99.90
15922;DHT22;8060;50.948;3.146;2023-12-20T06:56:11;6.20;99.90
15922;DHT22;8060;50.948;3.146;2023-12-20T06:58:44;6.10;99.90
15922;DHT22;8060;50.948;3.146;2023-12-20T07:01:12;6.20;99.90
15922;DHT22;8060;50.948;3.146;2023-12-20T07:03:41;6.10;99.90
15922;DHT22;8060;50.948;3.146;2023-12-20T07:06:09;6.10;99.90
15922;DHT22;8060;50.948;3.146;2023-12-20T07:08:38;6.20;99.90
15922;DHT22;8060;50.948;3.146;2023-12-20T07:11:08;6.20;99.90
15922;DHT22;8060;50.948;3.146;2023-12-20T07:13:36;6.20;99.90
15922;DHT22;8060;50.948;3.146;2023-12-20T07:16:04;6.10;99.90
15922;DHT22;8060;50.948;3.146;2023-12-20T07:18:32;6.10;99.90
15922;DHT22;8060;50.948;3.146;2023-12-20T07:21:01;6.20;99.90
15922;DHT22;8060;50.948;3.146;2023-12-20T07:23:29;6.20;99.90
15922;DHT22;8060;50.948;3.146;2023-12-20T07:25:57;6.20;99.90
15922;DHT22;8060;50.948;3.146;2023-12-20T07:28:26;6.20;99.90
15922;DHT22;8060;50.948;3.146;2023-12-20T07:30:55;6.20;99.90
15922;DHT22;8060;50.948;3.146;2023-12-20T07:33:23;6.20;99.90
15922;DHT22;8060;50.948;3.146;2023-12-20T07:35:51;6.20;99.90
15922;DHT22;8060;50.948;3.146;2023-12-20T07:38:20;6.20;99.90
15922;DHT22;8060;50.948;3.146;2023-12-20T07:40:48;6.20;99.90
15922;DHT22;8060;50.948;3.146;2023-12-20T07:43:16;6.20;99.90
15922;DHT22;8060;50.948;3.146;2023-12-20T07:45:45;6.20;99.90
15922;DHT22;8060;50.948;3.146;2023-12-20T07:48:13;6.20;99.90
15922;DHT22;8060;50.948;3.146;2023-12-20T07:50:42;6.30;99.90
15922;DHT22;8060;50.948;3.146;2023-12-20T07:53:10;6.20;99.90
15922;DHT22;8060;50.948;3.146;2023-12-20T07:55:39;6.20;99.90
15922;DHT22;8060;50.948;3.146;2023-12-20T07:58:07;6.20;99.90
15922;DHT22;8060;50.948;3.146;2023-12-20T08:00:35;6.20;99.90
15922;DHT22;8060;50.948;3.146;2023-12-20T08:03:05;6.30;99.90
15922;DHT22;8060;50.948;3.146;2023-12-20T08:05:33;6.30;99.90
15922;DHT22;8060;50.948;3.146;2023-12-20T08:08:01;6.30;99.90
15922;DHT22;8060;50.948;3.146;2023-12-20T08:10:30;6.30;99.90
15922;DHT22;8060;50.948;3.146;2023-12-20T08:12:58;6.40;99.90
15922;DHT22;8060;50.948;3.146;2023-12-20T08:15:26;6.40;99.90
15922;DHT22;8060;50.948;3.146;2023-12-20T08:17:54;6.30;99.90
15922;DHT22;8060;50.948;3.146;2023-12-20T08:20:23;6.40;99.90
15922;DHT22;8060;50.948;3.146;2023-12-20T08:23:05;6.40;99.90
15922;DHT22;8060;50.948;3.146;2023-12-20T08:25:33;6.30;99.90
15922;DHT22;8060;50.948;3.146;2023-12-20T08:28:02;6.30;99.90
15922;DHT22;8060;50.948;3.146;2023-12-20T08:30:31;6.40;99.90
15922;DHT22;8060;50.948;3.146;2023-12-20T08:33:00;6.40;99.90
15922;DHT22;8060;50.948;3.146;2023-12-20T08:35:30;6.50;99.90
15922;DHT22;8060;50.948;3.146;2023-12-20T08:37:58;6.50;99.90
15922;DHT22;8060;50.948;3.146;2023-12-20T08:40:26;6.60;99.90
15922;DHT22;8060;50.948;3.146;2023-12-20T08:42:55;6.60;99.90
15922;DHT22;8060;50.948;3.146;2023-12-20T08:45:22;6.60;99.90
15922;DHT22;8060;50.948;3.146;2023-12-20T08:47:51;6.70;99.90
15922;DHT22;8060;50.948;3.146;2023-12-20T08:50:19;6.80;99.90
15922;DHT22;8060;50.948;3.146;2023-12-20T08:52:49;6.80;99.90
15922;DHT22;8060;50.948;3.146;2023-12-20T08:55:18;6.90;99.90
15922;DHT22;8060;50.948;3.146;2023-12-20T08:57:47;7.00;99.90
15922;DHT22;8060;50.948;3.146;2023-12-20T09:00:16;7.00;99.90
15922;DHT22;8060;50.948;3.146;2023-12-20T09:02:47;7.00;99.90
15922;DHT22;8060;50.948;3.146;2023-12-20T09:05:15;7.10;99.90
15922;DHT22;8060;50.948;3.146;2023-12-20T09:07:43;7.20;99.90
15922;DHT22;8060;50.948;3.146;2023-12-20T09:10:13;7.20;99.90
15922;DHT22;8060;50.948;3.146;2023-12-20T09:12:44;7.20;99.90
15922;DHT22;8060;50.948;3.146;2023-12-20T09:15:14;7.20;99.90
15922;DHT22;8060;50.948;3.146;2023-12-20T09:17:43;7.10;99.90
15922;DHT22;8060;50.948;3.146;2023-12-20T09:20:12;7.20;99.90
15922;DHT22;8060;50.948;3.146;2023-12-20T09:22:41;7.30;99.90
15922;DHT22;8060;50.948;3.146;2023-12-20T09:25:09;7.40;99.90
15922;DHT22;8060;50.948;3.146;2023-12-20T09:27:39;7.40;99.90
15922;DHT22;8060;50.948;3.146;2023-12-20T09:30:09;7.40;99.90
15922;DHT22;8060;50.948;3.146;2023-12-20T09:32:37;7.50;99.90
15922;DHT22;8060;50.948;3.146;2023-12-20T09:35:06;7.60;99.90
15922;DHT22;8060;50.948;3.146;2023-12-20T09:37:35;7.60;99.90
15922;DHT22;8060;50.948;3.146;2023-12-20T09:40:04;7.70;99.90
15922;DHT22;8060;50.948;3.146;2023-12-20T09:42:40;7.70;99.90
15922;DHT22;8060;50.948;3.146;2023-12-20T09:45:14;7.80;99.90
15922;DHT22;8060;50.948;3.146;2023-12-20T09:47:43;7.80;99.90
15922;DHT22;8060;50.948;3.146;2023-12-20T09:50:12;7.90;99.90
15922;DHT22;8060;50.948;3.146;2023-12-20T09:52:42;8.00;99.90
15922;DHT22;8060;50.948;3.146;2023-12-20T09:55:11;8.00;99.90
15922;DHT22;8060;50.948;3.146;2023-12-20T09:57:41;8.10;99.90
15922;DHT22;8060;50.948;3.146;2023-12-20T10:00:11;8.10;99.90
15922;DHT22;8060;50.948;3.146;2023-12-20T10:02:45;8.30;99.90
15922;DHT22;8060;50.948;3.146;2023-12-20T10:05:16;8.40;99.90
15922;DHT22;8060;50.948;3.146;2023-12-20T10:07:46;8.40;99.90
15922;DHT22;8060;50.948;3.146;2023-12-20T10:10:15;8.40;99.90
15922;DHT22;8060;50.948;3.146;2023-12-20T10:13:02;8.50;99.90
15922;DHT22;8060;50.948;3.146;2023-12-20T10:15:30;8.40;99.90
15922;DHT22;8060;50.948;3.146;2023-12-20T10:17:58;8.40;99.90
15922;DHT22;8060;50.948;3.146;2023-12-20T10:20:28;8.50;99.90
15922;DHT22;8060;50.948;3.146;2023-12-20T10:22:57;8.60;99.90
15922;DHT22;8060;50.948;3.146;2023-12-20T10:25:26;8.60;99.90
15922;DHT22;8060;50.948;3.146;2023-12-20T10:28:11;8.70;99.90
15922;DHT22;8060;50.948;3.146;2023-12-20T10:30:40;8.80;99.90
15922;DHT22;8060;50.948;3.146;2023-12-20T10:33:10;8.90;99.90
15922;DHT22;8060;50.948;3.146;2023-12-20T10:35:39;9.00;99.90
15922;DHT22;8060;50.948;3.146;2023-12-20T10:38:12;9.00;99.90
15922;DHT22;8060;50.948;3.146;2023-12-20T10:40:42;9.10;99.90
15922;DHT22;8060;50.948;3.146;2023-12-20T10:43:15;9.10;99.90
15922;DHT22;8060;50.948;3.146;2023-12-20T10:45:43;9.10;99.90
15922;DHT22;8060;50.948;3.146;2023-12-20T10:48:11;9.10;99.90
15922;DHT22;8060;50.948;3.146;2023-12-20T10:50:41;9.20;99.90
15922;DHT22;8060;50.948;3.146;2023-12-20T10:53:09;9.20;99.90
15922;DHT22;8060;50.948;3.146;2023-12-20T10:55:39;9.20;99.90
15922;DHT22;8060;50.948;3.146;2023-12-20T10:58:08;9.20;99.90
15922;DHT22;8060;50.948;3.146;2023-12-20T11:00:40;9.20;99.90
15922;DHT22;8060;50.948;3.146;2023-12-20T11:03:09;9.10;99.90
15922;DHT22;8060;50.948;3.146;2023-12-20T11:05:43;9.10;99.90
15922;DHT22;8060;50.948;3.146;2023-12-20T11:08:22;9.10;99.90
15922;DHT22;8060;50.948;3.146;2023-12-20T11:10:58;9.10;99.90
15922;DHT22;8060;50.948;3.146;2023-12-20T11:13:32;9.00;99.90
15922;DHT22;8060;50.948;3.146;2023-12-20T11:16:02;9.00;99.90
15922;DHT22;8060;50.948;3.146;2023-12-20T11:18:31;9.00;99.90
15922;DHT22;8060;50.948;3.146;2023-12-20T11:21:01;9.10;99.90
15922;DHT22;8060;50.948;3.146;2023-12-20T11:23:30;9.10;99.90
15922;DHT22;8060;50.948;3.146;2023-12-20T11:26:00;9.10;99.90
15922;DHT22;8060;50.948;3.146;2023-12-20T11:28:29;9.00;99.90
15922;DHT22;8060;50.948;3.146;2023-12-20T11:30:58;9.00;99.90
15922;DHT22;8060;50.948;3.146;2023-12-20T11:33:35;9.00;99.90
15922;DHT22;8060;50.948;3.146;2023-12-20T11:36:07;9.10;99.90
15922;DHT22;8060;50.948;3.146;2023-12-20T11:38:53;9.10;99.90
15922;DHT22;8060;50.948;3.146;2023-12-20T11:41:22;9.20;99.90
15922;DHT22;8060;50.948;3.146;2023-12-20T11:43:53;9.40;99.90
15922;DHT22;8060;50.948;3.146;2023-12-20T11:46:21;9.50;99.90
15922;DHT22;8060;50.948;3.146;2023-12-20T11:48:51;9.60;99.90
15922;DHT22;8060;50.948;3.146;2023-12-20T11:51:20;9.90;99.90
15922;DHT22;8060;50.948;3.146;2023-12-20T11:53:51;10.10;99.90
15922;DHT22;8060;50.948;3.146;2023-12-20T11:56:20;10.10;99.90
15922;DHT22;8060;50.948;3.146;2023-12-20T11:58:48;10.20;99.90
15922;DHT22;8060;50.948;3.146;2023-12-20T12:01:19;10.10;99.90
15922;DHT22;8060;50.948;3.146;2023-12-20T12:03:48;10.10;99.90
15922;DHT22;8060;50.948;3.146;2023-12-20T12:06:17;10.00;99.90
15922;DHT22;8060;50.948;3.146;2023-12-20T12:08:45;10.00;99.90
15922;DHT22;8060;50.948;3.146;2023-12-20T12:11:14;10.00;99.90
15922;DHT22;8060;50.948;3.146;2023-12-20T12:13:41;9.90;99.90
15922;DHT22;8060;50.948;3.146;2023-12-20T12:16:10;9.90;99.90
15922;DHT22;8060;50.948;3.146;2023-12-20T12:18:38;10.00;99.90
15922;DHT22;8060;50.948;3.146;2023-12-20T12:21:08;9.90;99.90
15922;DHT22;8060;50.948;3.146;2023-12-20T12:23:46;10.00;99.90
15922;DHT22;8060;50.948;3.146;2023-12-20T12:26:14;10.10;99.90
15922;DHT22;8060;50.948;3.146;2023-12-20T12:28:42;10.30;99.90
15922;DHT22;8060;50.948;3.146;2023-12-20T12:31:13;10.80;99.90
15922;DHT22;8060;50.948;3.146;2023-12-20T12:33:43;11.30;99.90
15922;DHT22;8060;50.948;3.146;2023-12-20T12:36:12;11.60;99.90
15922;DHT22;8060;50.948;3.146;2023-12-20T12:38:43;11.90;99.90
15922;DHT22;8060;50.948;3.146;2023-12-20T12:41:14;12.30;99.90
15922;DHT22;8060;50.948;3.146;2023-12-20T12:43:42;12.70;99.90
15922;DHT22;8060;50.948;3.146;2023-12-20T12:46:11;13.10;99.90
15922;DHT22;8060;50.948;3.146;2023-12-20T12:48:39;13.60;99.90
15922;DHT22;8060;50.948;3.146;2023-12-20T12:51:11;13.80;99.90
15922;DHT22;8060;50.948;3.146;2023-12-20T12:53:40;13.90;99.90
15922;DHT22;8060;50.948;3.146;2023-12-20T12:56:09;13.80;99.90
15922;DHT22;8060;50.948;3.146;2023-12-20T12:58:38;13.70;99.90
15922;DHT22;8060;50.948;3.146;2023-12-20T13:01:07;13.40;99.90
15922;DHT22;8060;50.948;3.146;2023-12-20T13:03:35;13.10;99.90
15922;DHT22;8060;50.948;3.146;2023-12-20T13:06:04;12.70;99.90
15922;DHT22;8060;50.948;3.146;2023-12-20T13:08:35;12.40;99.90
15922;DHT22;8060;50.948;3.146;2023-12-20T13:11:03;12.10;99.90
15922;DHT22;8060;50.948;3.146;2023-12-20T13:13:31;11.90;99.90
15922;DHT22;8060;50.948;3.146;2023-12-20T13:16:01;11.70;99.90
15922;DHT22;8060;50.948;3.146;2023-12-20T13:18:29;11.40;99.90
15922;DHT22;8060;50.948;3.146;2023-12-20T13:20:57;11.30;99.90
15922;DHT22;8060;50.948;3.146;2023-12-20T13:23:25;11.20;99.90
15922;DHT22;8060;50.948;3.146;2023-12-20T13:25:54;11.10;99.90
15922;DHT22;8060;50.948;3.146;2023-12-20T13:28:22;11.00;99.90
15922;DHT22;8060;50.948;3.146;2023-12-20T13:30:50;10.90;99.90
15922;DHT22;8060;50.948;3.146;2023-12-20T13:33:20;10.80;99.90
15922;DHT22;8060;50.948;3.146;2023-12-20T13:35:47;10.80;99.90
15922;DHT22;8060;50.948;3.146;2023-12-20T13:38:15;10.70;99.90
15922;DHT22;8060;50.948;3.146;2023-12-20T13:40:43;10.60;99.90
15922;DHT22;8060;50.948;3.146;2023-12-20T13:43:11;10.60;99.90
15922;DHT22;8060;50.948;3.146;2023-12-20T13:45:40;10.60;99.90
15922;DHT22;8060;50.948;3.146;2023-12-20T13:48:08;10.50;99.90
15922;DHT22;8060;50.948;3.146;2023-12-20T13:50:38;10.50;99.90
15922;DHT22;8060;50.948;3.146;2023-12-20T13:53:06;10.40;99.90
15922;DHT22;8060;50.948;3.146;2023-12-20T13:55:34;10.50;99.90
15922;DHT22;8060;50.948;3.146;2023-12-20T13:58:03;10.40;99.90
15922;DHT22;8060;50.948;3.146;2023-12-20T14:00:31;10.40;99.90
15922;DHT22;8060;50.948;3.146;2023-12-20T14:02:59;10.50;99.90
15922;DHT22;8060;50.948;3.146;2023-12-20T14:05:28;10.50;99.90
15922;DHT22;8060;50.948;3.146;2023-12-20T14:07:58;10.50;99.90
15922;DHT22;8060;50.948;3.146;2023-12-20T14:10:27;10.40;99.90
15922;DHT22;8060;50.948;3.146;2023-12-20T14:12:55;10.40;99.90
15922;DHT22;8060;50.948;3.146;2023-12-20T14:15:24;10.40;99.90
15922;DHT22;8060;50.948;3.146;2023-12-20T14:17:53;10.40;99.90
15922;DHT22;8060;50.948;3.146;2023-12-20T14:20:21;10.40;99.90
15922;DHT22;8060;50.948;3.146;2023-12-20T14:22:50;10.40;99.90
15922;DHT22;8060;50.948;3.146;2023-12-20T14:25:19;10.40;99.90
15922;DHT22;8060;50.948;3.146;2023-12-20T14:27:50;10.40;99.90
15922;DHT22;8060;50.948;3.146;2023-12-20T14:30:18;10.50;99.90
15922;DHT22;8060;50.948;3.146;2023-12-20T14:32:46;10.50;99.90
15922;DHT22;8060;50.948;3.146;2023-12-20T14:35:15;10.50;99.90
15922;DHT22;8060;50.948;3.146;2023-12-20T14:37:43;10.50;99.90
15922;DHT22;8060;50.948;3.146;2023-12-20T14:40:12;10.50;99.90
15922;DHT22;8060;50.948;3.146;2023-12-20T14:42:44;10.50;99.90
15922;DHT22;8060;50.948;3.146;2023-12-20T14:45:14;10.40;99.90
15922;DHT22;8060;50.948;3.146;2023-12-20T14:47:43;10.40;99.90
15922;DHT22;8060;50.948;3.146;2023-12-20T14:50:12;10.40;99.90
15922;DHT22;8060;50.948;3.146;2023-12-20T14:52:45;10.40;99.90
15922;DHT22;8060;50.948;3.146;2023-12-20T14:55:14;10.40;99.90
15922;DHT22;8060;50.948;3.146;2023-12-20T14:57:43;10.30;99.90
15922;DHT22;8060;50.948;3.146;2023-12-20T15:00:12;10.30;99.90
15922;DHT22;8060;50.948;3.146;2023-12-20T15:02:43;10.30;99.90
15922;DHT22;8060;50.948;3.146;2023-12-20T15:05:11;10.30;99.90
15922;DHT22;8060;50.948;3.146;2023-12-20T15:07:41;10.30;99.90
15922;DHT22;8060;50.948;3.146;2023-12-20T15:10:09;10.30;99.90
15922;DHT22;8060;50.948;3.146;2023-12-20T15:12:37;10.20;99.90
15922;DHT22;8060;50.948;3.146;2023-12-20T15:15:08;10.20;99.90
15922;DHT22;8060;50.948;3.146;2023-12-20T15:17:37;10.20;99.90
15922;DHT22;8060;50.948;3.146;2023-12-20T15:20:05;10.10;99.90
15922;DHT22;8060;50.948;3.146;2023-12-20T15:22:34;10.20;99.90
15922;DHT22;8060;50.948;3.146;2023-12-20T15:25:04;10.20;99.90
15922;DHT22;8060;50.948;3.146;2023-12-20T15:27:35;10.20;99.90
15922;DHT22;8060;50.948;3.146;2023-12-20T15:30:07;10.20;99.90
15922;DHT22;8060;50.948;3.146;2023-12-20T15:32:37;10.20;99.90
15922;DHT22;8060;50.948;3.146;2023-12-20T15:35:06;10.20;99.90
15922;DHT22;8060;50.948;3.146;2023-12-20T15:37:37;10.20;99.90
15922;DHT22;8060;50.948;3.146;2023-12-20T15:40:08;10.20;99.90
15922;DHT22;8060;50.948;3.146;2023-12-20T15:42:38;10.20;99.90
15922;DHT22;8060;50.948;3.146;2023-12-20T15:45:09;10.20;99.90
15922;DHT22;8060;50.948;3.146;2023-12-20T15:47:37;10.10;99.90
15922;DHT22;8060;50.948;3.146;2023-12-20T15:50:06;10.20;99.90
15922;DHT22;8060;50.948;3.146;2023-12-20T15:52:35;10.10;99.90
15922;DHT22;8060;50.948;3.146;2023-12-20T15:55:05;10.20;99.90
15922;DHT22;8060;50.948;3.146;2023-12-20T15:57:34;10.10;99.90
15922;DHT22;8060;50.948;3.146;2023-12-20T16:00:19;10.10;99.90
15922;DHT22;8060;50.948;3.146;2023-12-20T16:02:48;10.20;99.90
15922;DHT22;8060;50.948;3.146;2023-12-20T16:05:16;10.10;99.90
15922;DHT22;8060;50.948;3.146;2023-12-20T16:07:45;10.10;99.90
15922;DHT22;8060;50.948;3.146;2023-12-20T16:10:14;10.10;99.90